createdAt,value
2023-02-06T00:01:55.877Z,-9.71
2023-02-06T00:04:25.681Z,-9.69
2023-02-06T00:06:55.074Z,-9.66
2023-02-06T00:09:24.646Z,-9.65
2023-02-06T00:11:54.502Z,-9.66
2023-02-06T00:14:24.221Z,-9.70
2023-02-06T00:16:53.866Z,-9.75
2023-02-06T00:19:23.360Z,-9.77
2023-02-06T00:21:52.165Z,-9.79
2023-02-06T00:24:21.632Z,-9.81
2023-02-06T00:26:51.302Z,-9.81
2023-02-06T00:29:21.036Z,-9.82
2023-02-06T00:31:50.788Z,-9.81
2023-02-06T00:34:20.363Z,-9.79
2023-02-06T00:36:52.473Z,-9.80
2023-02-06T00:39:21.306Z,-9.84
2023-02-06T00:41:51.026Z,-9.89
2023-02-06T00:44:22.241Z,-9.98
2023-02-06T00:46:52.568Z,-10.01
2023-02-06T00:49:22.216Z,-9.99
2023-02-06T00:51:53.521Z,-9.98
2023-02-06T00:54:23.204Z,-9.97
2023-02-06T00:56:52.836Z,-9.97
2023-02-06T00:59:22.469Z,-9.96
2023-02-06T01:01:53.922Z,-9.96
2023-02-06T01:04:23.608Z,-9.98
2023-02-06T01:06:53.097Z,-10.01
2023-02-06T01:09:22.590Z,-10.00
2023-02-06T01:11:52.308Z,-10.01
2023-02-06T01:14:22.068Z,-10.03
2023-02-06T01:16:51.520Z,-10.04
2023-02-06T01:19:20.169Z,-10.07
2023-02-06T01:21:52.387Z,-10.09
2023-02-06T01:24:21.876Z,-10.10
2023-02-06T01:26:51.383Z,-10.15
2023-02-06T01:29:21.028Z,-10.19
2023-02-06T01:31:50.579Z,-10.22
2023-02-06T01:34:20.611Z,-10.26
2023-02-06T01:36:50.306Z,-10.32
2023-02-06T01:39:19.789Z,-10.38
2023-02-06T01:41:51.498Z,-10.43
2023-02-06T01:44:22.998Z,-10.46
2023-02-06T01:46:53.952Z,-10.48
2023-02-06T01:49:26.478Z,-10.49
2023-02-06T01:52:01.847Z,-10.48
2023-02-06T01:54:31.995Z,-10.48
2023-02-06T01:57:05.017Z,-10.50
2023-02-06T01:59:36.245Z,-10.51
2023-02-06T02:02:06.345Z,-10.50
2023-02-06T02:04:37.220Z,-10.50
2023-02-06T02:07:16.063Z,-10.49
2023-02-06T02:09:45.588Z,-10.48
2023-02-06T02:12:15.754Z,-10.49
2023-02-06T02:14:46.466Z,-10.51
2023-02-06T02:17:26.605Z,-10.56
2023-02-06T02:20:14.588Z,-10.61
2023-02-06T02:22:56.635Z,-10.63
2023-02-06T02:25:44.286Z,-10.65
2023-02-06T02:28:20.269Z,-10.61
2023-02-06T02:31:13.260Z,-10.59
2023-02-06T02:33:42.946Z,-10.62
2023-02-06T02:36:31.444Z,-10.67
2023-02-06T02:39:08.891Z,-10.64
2023-02-06T02:41:46.476Z,-10.60
2023-02-06T02:44:34.861Z,-10.52
2023-02-06T02:47:07.681Z,-10.48
2023-02-06T02:49:38.891Z,-10.47
2023-02-06T02:52:10.652Z,-10.43
2023-02-06T02:54:40.212Z,-10.40
2023-02-06T02:57:16.162Z,-10.36
2023-02-06T02:59:46.826Z,-10.32
2023-02-06T03:02:22.113Z,-10.27
2023-02-06T03:04:58.400Z,-10.23
2023-02-06T03:07:33.907Z,-10.19
2023-02-06T03:10:15.731Z,-10.16
2023-02-06T03:12:54.937Z,-10.15
2023-02-06T03:15:31.257Z,-10.14
2023-02-06T03:18:07.918Z,-10.06
2023-02-06T03:20:39.102Z,-10.00
2023-02-06T03:23:08.756Z,-9.95
2023-02-06T03:25:41.891Z,-9.92
2023-02-06T03:28:18.748Z,-9.88
2023-02-06T03:30:51.575Z,-9.85
2023-02-06T03:33:23.282Z,-9.82
2023-02-06T03:35:53.474Z,-9.80
2023-02-06T03:38:25.257Z,-9.78
2023-02-06T03:40:55.530Z,-9.76
2023-02-06T03:43:27.968Z,-9.74
2023-02-06T03:46:00.902Z,-9.71
2023-02-06T03:48:32.668Z,-9.73
2023-02-06T03:51:03.964Z,-9.71
2023-02-06T03:53:35.354Z,-9.73
2023-02-06T03:56:15.317Z,-9.76
2023-02-06T03:58:45.130Z,-9.79
2023-02-06T04:01:15.366Z,-9.80
2023-02-06T04:03:45.198Z,-9.81
2023-02-06T04:06:16.937Z,-9.82
2023-02-06T04:08:47.000Z,-9.80
2023-02-06T04:11:18.673Z,-9.78
2023-02-06T04:13:48.695Z,-9.76
2023-02-06T04:16:18.171Z,-9.75
2023-02-06T04:18:48.035Z,-9.73
2023-02-06T04:21:18.270Z,-9.75
2023-02-06T04:23:47.902Z,-9.74
2023-02-06T04:26:17.355Z,-9.77
2023-02-06T04:28:47.200Z,-9.77
2023-02-06T04:31:17.120Z,-9.78
2023-02-06T04:33:45.850Z,-9.81
2023-02-06T04:36:16.409Z,-9.83
2023-02-06T04:38:45.554Z,-9.83
2023-02-06T04:41:15.334Z,-9.82
2023-02-06T04:43:45.758Z,-9.78
2023-02-06T04:46:15.587Z,-9.72
2023-02-06T04:48:45.474Z,-9.70
2023-02-06T04:51:15.326Z,-9.67
2023-02-06T04:53:47.031Z,-9.68
2023-02-06T04:56:17.082Z,-9.69
2023-02-06T04:58:46.559Z,-9.72
2023-02-06T05:01:17.537Z,-9.65
2023-02-06T05:03:47.936Z,-9.62
2023-02-06T05:06:18.107Z,-9.65
2023-02-06T05:08:47.955Z,-9.67
2023-02-06T05:11:17.924Z,-9.63
2023-02-06T05:13:47.650Z,-9.60
2023-02-06T05:16:18.179Z,-9.61
2023-02-06T05:18:48.304Z,-9.59
2023-02-06T05:21:17.875Z,-9.59
2023-02-06T05:23:47.704Z,-9.58
2023-02-06T05:26:17.352Z,-9.59
2023-02-06T05:28:47.246Z,-9.58
2023-02-06T05:31:20.405Z,-9.60
2023-02-06T05:33:55.712Z,-9.67
2023-02-06T05:36:25.464Z,-9.67
2023-02-06T05:38:55.495Z,-9.63
2023-02-06T05:41:24.835Z,-9.53
2023-02-06T05:43:53.751Z,-9.43
2023-02-06T05:46:22.669Z,-9.43
2023-02-06T05:48:54.223Z,-9.40
2023-02-06T05:51:23.719Z,-9.29
2023-02-06T05:53:53.506Z,-9.28
2023-02-06T05:56:23.576Z,-9.27
2023-02-06T05:58:53.652Z,-9.25
2023-02-06T06:01:22.398Z,-9.21
2023-02-06T06:03:52.623Z,-9.15
2023-02-06T06:06:22.141Z,-9.07
2023-02-06T06:08:52.176Z,-9.01
2023-02-06T06:11:21.936Z,-8.95
2023-02-06T06:13:51.777Z,-8.89
2023-02-06T06:16:21.964Z,-8.79
2023-02-06T06:18:51.938Z,-8.68
2023-02-06T06:21:22.448Z,-8.55
2023-02-06T06:23:52.357Z,-8.42
2023-02-06T06:26:22.051Z,-8.29
2023-02-06T06:28:51.849Z,-8.20
2023-02-06T06:31:21.662Z,-8.11
2023-02-06T06:33:51.186Z,-8.02
2023-02-06T06:36:20.634Z,-7.93
2023-02-06T06:38:50.643Z,-7.84
2023-02-06T06:41:20.513Z,-7.73
2023-02-06T06:43:51.518Z,-7.62
2023-02-06T06:46:21.302Z,-7.55
2023-02-06T06:48:50.754Z,-7.50
2023-02-06T06:51:21.462Z,-7.46
2023-02-06T06:53:50.238Z,-7.42
2023-02-06T06:56:20.401Z,-7.34
2023-02-06T06:58:52.206Z,-7.22
2023-02-06T07:01:22.059Z,-7.08
2023-02-06T07:03:50.814Z,-6.94
2023-02-06T07:06:21.095Z,-6.71
2023-02-06T07:08:50.967Z,-6.45
2023-02-06T07:11:20.970Z,-6.27
2023-02-06T07:13:50.758Z,-6.10
2023-02-06T07:16:20.677Z,-5.97
2023-02-06T07:18:50.538Z,-6.01
2023-02-06T07:21:20.511Z,-6.03
2023-02-06T07:23:50.378Z,-5.87
2023-02-06T07:26:19.821Z,-5.66
2023-02-06T07:28:50.460Z,-5.39
2023-02-06T07:31:20.291Z,-5.16
2023-02-06T07:33:50.640Z,-4.95
2023-02-06T07:36:19.548Z,-4.81
2023-02-06T07:38:49.391Z,-4.57
2023-02-06T07:41:19.336Z,-4.31
2023-02-06T07:43:49.432Z,-4.08
2023-02-06T07:46:19.209Z,-3.89
2023-02-06T07:48:48.594Z,-3.74
2023-02-06T07:51:18.448Z,-3.59
2023-02-06T07:53:49.101Z,-3.45
2023-02-06T07:56:18.917Z,-3.24
2023-02-06T07:58:52.880Z,-2.99
2023-02-06T08:01:23.056Z,-2.81
2023-02-06T08:03:53.465Z,-2.66
2023-02-06T08:06:25.369Z,-2.54
2023-02-06T08:08:58.481Z,-2.38
2023-02-06T08:11:30.709Z,-2.25
2023-02-06T08:14:01.433Z,-2.11
2023-02-06T08:16:30.121Z,-2.02
2023-02-06T08:19:01.912Z,-1.86
2023-02-06T08:21:31.443Z,-1.70
2023-02-06T08:24:01.288Z,-1.51
2023-02-06T08:26:32.906Z,-1.33
2023-02-06T08:29:04.263Z,-1.09
2023-02-06T08:31:36.004Z,-0.81
2023-02-06T08:34:07.224Z,-0.56
2023-02-06T08:36:37.164Z,-0.37
2023-02-06T08:39:07.139Z,-0.24
2023-02-06T08:41:38.183Z,-0.13
2023-02-06T08:44:12.250Z,-0.02
2023-02-06T08:46:43.368Z,0.19
2023-02-06T08:49:15.795Z,0.40
2023-02-06T08:51:45.884Z,0.49
2023-02-06T08:54:16.987Z,0.43
2023-02-06T08:56:47.126Z,0.38
2023-02-06T08:59:17.995Z,0.37
2023-02-06T09:01:49.794Z,0.39
2023-02-06T09:04:20.002Z,0.49
2023-02-06T09:06:49.725Z,0.64
2023-02-06T09:09:19.732Z,0.70
2023-02-06T09:11:49.349Z,0.74
2023-02-06T09:14:19.008Z,0.82
2023-02-06T09:16:48.503Z,0.93
2023-02-06T09:19:18.068Z,1.00
2023-02-06T09:21:47.489Z,1.09
2023-02-06T09:24:17.200Z,1.13
2023-02-06T09:27:04.020Z,1.02
2023-02-06T09:29:34.605Z,0.97
2023-02-06T09:32:04.308Z,1.10
2023-02-06T09:34:34.136Z,1.23
2023-02-06T09:37:04.947Z,1.18
2023-02-06T09:39:34.902Z,1.09
2023-02-06T09:42:08.593Z,1.03
2023-02-06T09:44:58.842Z,1.22
2023-02-06T09:47:34.050Z,1.36
2023-02-06T09:50:11.487Z,1.51
2023-02-06T09:52:52.730Z,1.61
2023-02-06T09:55:41.162Z,1.68
2023-02-06T09:58:20.140Z,1.97
2023-02-06T10:00:52.788Z,2.07
2023-02-06T10:03:37.024Z,2.13
2023-02-06T10:06:22.270Z,2.17
2023-02-06T10:08:53.636Z,2.21
2023-02-06T10:11:45.660Z,2.31
2023-02-06T10:14:36.976Z,2.50
2023-02-06T10:17:16.468Z,2.53
2023-02-06T10:20:01.804Z,2.79
2023-02-06T10:22:37.735Z,2.88
2023-02-06T10:25:24.851Z,2.90
2023-02-06T10:27:59.137Z,2.96
2023-02-06T10:30:49.720Z,3.19
2023-02-06T10:33:49.260Z,3.44
2023-02-06T10:36:36.564Z,3.58
2023-02-06T10:39:18.514Z,3.78
2023-02-06T10:42:06.614Z,4.00
2023-02-06T10:44:51.294Z,3.90
2023-02-06T10:47:38.393Z,3.90
2023-02-06T10:50:16.712Z,4.00
2023-02-06T10:52:47.994Z,4.00
2023-02-06T10:55:40.385Z,3.99
2023-02-06T10:58:15.669Z,4.11
2023-02-06T11:00:47.377Z,4.24
2023-02-06T11:03:19.831Z,4.25
2023-02-06T11:05:50.536Z,4.27
2023-02-06T11:08:23.732Z,4.14
2023-02-06T11:10:54.120Z,4.06
2023-02-06T11:13:28.623Z,4.02
2023-02-06T11:16:06.573Z,4.03
2023-02-06T11:18:39.663Z,4.01
2023-02-06T11:21:10.150Z,4.18
2023-02-06T11:23:40.125Z,4.28
2023-02-06T11:26:17.550Z,4.44
2023-02-06T11:28:59.432Z,4.63
2023-02-06T11:31:39.657Z,4.73
2023-02-06T11:34:24.133Z,4.76
2023-02-06T11:37:01.476Z,4.74
2023-02-06T11:39:32.878Z,4.82
2023-02-06T11:42:04.814Z,4.90
2023-02-06T11:44:45.327Z,4.87
2023-02-06T11:47:20.796Z,4.71
2023-02-06T11:49:50.847Z,4.51
2023-02-06T11:52:31.146Z,4.64
2023-02-06T11:55:04.046Z,4.75
2023-02-06T11:57:36.601Z,4.86
2023-02-06T12:00:21.300Z,4.98
2023-02-06T12:02:52.393Z,5.12
2023-02-06T12:05:27.172Z,5.16
2023-02-06T12:08:05.504Z,5.17
2023-02-06T12:10:39.053Z,5.17
2023-02-06T12:13:14.877Z,5.01
2023-02-06T12:15:48.103Z,4.85
2023-02-06T12:18:22.956Z,4.71
2023-02-06T12:21:02.755Z,4.72
2023-02-06T12:23:38.773Z,4.73
2023-02-06T12:26:12.431Z,4.70
2023-02-06T12:28:57.766Z,4.78
2023-02-06T12:31:40.685Z,4.85
2023-02-06T12:34:32.218Z,4.59
2023-02-06T12:37:14.928Z,4.36
2023-02-06T12:39:45.991Z,4.49
2023-02-06T12:42:34.230Z,4.72
2023-02-06T12:45:12.842Z,4.95
2023-02-06T12:47:55.127Z,5.23
2023-02-06T12:50:27.362Z,5.21
2023-02-06T12:53:15.373Z,5.18
2023-02-06T12:56:06.504Z,5.40
2023-02-06T12:58:43.831Z,5.48
2023-02-06T13:01:30.120Z,5.27
2023-02-06T13:04:25.979Z,5.00
2023-02-06T13:07:05.637Z,5.05
2023-02-06T13:09:41.683Z,5.23
2023-02-06T13:12:16.162Z,5.35
2023-02-06T13:14:48.416Z,5.34
2023-02-06T13:17:25.708Z,5.31
2023-02-06T13:20:07.430Z,5.50
2023-02-06T13:22:46.988Z,5.74
2023-02-06T13:25:25.431Z,5.60
2023-02-06T13:27:55.717Z,5.55
2023-02-06T13:30:33.557Z,5.49
2023-02-06T13:33:15.666Z,5.65
2023-02-06T13:35:57.146Z,5.80
2023-02-06T13:38:28.924Z,5.96
2023-02-06T13:41:17.000Z,6.20
2023-02-06T13:43:49.846Z,6.48
2023-02-06T13:46:22.430Z,6.48
2023-02-06T13:49:11.519Z,6.44
2023-02-06T13:51:46.750Z,6.49
2023-02-06T13:54:30.898Z,6.29
2023-02-06T13:57:18.979Z,6.04
2023-02-06T14:00:02.134Z,5.95
2023-02-06T14:02:36.999Z,5.76
2023-02-06T14:05:11.052Z,5.69
2023-02-06T14:07:55.851Z,5.64
2023-02-06T14:10:25.361Z,5.84
2023-02-06T14:12:57.955Z,5.92
2023-02-06T14:15:47.919Z,5.88
2023-02-06T14:18:16.756Z,5.76
2023-02-06T14:20:50.343Z,5.48
2023-02-06T14:23:45.245Z,5.25
2023-02-06T14:26:23.667Z,5.20
2023-02-06T14:29:12.307Z,4.97
2023-02-06T14:32:00.778Z,4.84
2023-02-06T14:34:50.621Z,4.87
2023-02-06T14:37:38.809Z,4.77
2023-02-06T14:40:19.213Z,4.48
2023-02-06T14:42:49.529Z,4.27
2023-02-06T14:45:21.820Z,4.29
2023-02-06T14:47:54.177Z,4.28
2023-02-06T14:50:25.807Z,4.21
2023-02-06T14:52:57.162Z,4.02
2023-02-06T14:55:40.404Z,3.68
2023-02-06T14:58:30.122Z,3.10
2023-02-06T15:01:21.069Z,2.45
2023-02-06T15:03:53.209Z,1.91
2023-02-06T15:06:35.597Z,1.39
2023-02-06T15:09:05.696Z,0.94
2023-02-06T15:11:36.112Z,0.57
2023-02-06T15:14:19.996Z,0.19
2023-02-06T15:16:50.898Z,-0.16
2023-02-06T15:19:23.661Z,-0.49
2023-02-06T15:22:16.626Z,-0.80
2023-02-06T15:24:49.150Z,-1.16
2023-02-06T15:27:25.181Z,-1.37
2023-02-06T15:29:55.812Z,-1.50
2023-02-06T15:32:30.189Z,-1.65
2023-02-06T15:35:00.412Z,-1.79
2023-02-06T15:37:35.456Z,-1.93
2023-02-06T15:40:09.907Z,-2.10
2023-02-06T15:42:39.480Z,-2.25
2023-02-06T15:45:16.630Z,-2.37
2023-02-06T15:47:46.570Z,-2.47
2023-02-06T15:50:24.437Z,-2.58
2023-02-06T15:52:55.290Z,-2.71
2023-02-06T15:55:29.355Z,-2.85
2023-02-06T15:57:59.597Z,-3.01
2023-02-06T16:00:35.888Z,-3.21
2023-02-06T16:03:08.321Z,-3.35
2023-02-06T16:05:42.751Z,-3.52
2023-02-06T16:08:21.613Z,-3.67
2023-02-06T16:10:54.407Z,-3.84
2023-02-06T16:13:28.932Z,-3.96
2023-02-06T16:16:03.666Z,-4.08
2023-02-06T16:18:36.378Z,-4.23
2023-02-06T16:21:23.125Z,-4.36
2023-02-06T16:23:53.134Z,-4.48
2023-02-06T16:26:25.161Z,-4.58
2023-02-06T16:29:06.195Z,-4.67
2023-02-06T16:31:38.054Z,-4.80
2023-02-06T16:34:21.166Z,-4.89
2023-02-06T16:36:50.612Z,-4.95
2023-02-06T16:39:22.005Z,-5.03
2023-02-06T16:41:54.423Z,-5.11
2023-02-06T16:44:42.958Z,-5.16
2023-02-06T16:47:20.099Z,-5.24
2023-02-06T16:49:50.232Z,-5.32
2023-02-06T16:52:24.479Z,-5.41
2023-02-06T16:54:59.328Z,-5.49
2023-02-06T16:57:33.520Z,-5.58
2023-02-06T17:00:06.018Z,-5.64
2023-02-06T17:02:34.841Z,-5.69
2023-02-06T17:05:05.570Z,-5.70
2023-02-06T17:07:35.698Z,-5.71
2023-02-06T17:10:06.397Z,-5.74
2023-02-06T17:12:36.426Z,-5.74
2023-02-06T17:15:07.275Z,-5.78
2023-02-06T17:17:37.504Z,-5.76
2023-02-06T17:20:08.798Z,-5.77
2023-02-06T17:22:38.774Z,-5.89
2023-02-06T17:25:08.701Z,-6.02
2023-02-06T17:27:38.792Z,-6.13
2023-02-06T17:30:17.675Z,-6.23
2023-02-06T17:32:49.633Z,-6.32
2023-02-06T17:35:20.161Z,-6.42
2023-02-06T17:37:52.586Z,-6.52
2023-02-06T17:40:24.785Z,-6.63
2023-02-06T17:42:55.375Z,-6.73
2023-02-06T17:45:25.277Z,-6.80
2023-02-06T17:47:55.326Z,-6.84
2023-02-06T17:50:25.963Z,-6.89
2023-02-06T17:52:56.153Z,-6.95
2023-02-06T17:55:26.803Z,-7.02
2023-02-06T17:57:56.507Z,-7.06
2023-02-06T18:00:26.528Z,-7.08
2023-02-06T18:02:56.731Z,-7.11
2023-02-06T18:05:25.766Z,-7.15
2023-02-06T18:07:55.997Z,-7.20
2023-02-06T18:10:26.206Z,-7.27
2023-02-06T18:12:55.730Z,-7.31
2023-02-06T18:15:27.206Z,-7.35
2023-02-06T18:17:56.753Z,-7.39
2023-02-06T18:20:26.296Z,-7.46
2023-02-06T18:22:56.039Z,-7.56
2023-02-06T18:25:25.671Z,-7.64
2023-02-06T18:27:55.176Z,-7.66
2023-02-06T18:30:24.843Z,-7.70
2023-02-06T18:32:54.425Z,-7.71
2023-02-06T18:35:23.817Z,-7.72
2023-02-06T18:37:53.803Z,-7.76
2023-02-06T18:40:23.302Z,-7.81
2023-02-06T18:42:54.474Z,-7.86
2023-02-06T18:45:25.410Z,-7.88
2023-02-06T18:47:56.077Z,-7.91
2023-02-06T18:50:25.707Z,-7.91
2023-02-06T18:52:55.522Z,-7.92
2023-02-06T18:55:25.520Z,-7.97
2023-02-06T18:57:54.984Z,-8.01
2023-02-06T19:00:24.679Z,-8.04
2023-02-06T19:02:54.580Z,-8.11
2023-02-06T19:05:24.229Z,-8.22
2023-02-06T19:07:54.033Z,-8.39
2023-02-06T19:10:23.542Z,-8.51
2023-02-06T19:12:52.974Z,-8.62
2023-02-06T19:15:22.716Z,-8.74
2023-02-06T19:17:52.210Z,-8.87
2023-02-06T19:20:21.875Z,-8.96
2023-02-06T19:22:52.970Z,-9.00
2023-02-06T19:25:22.849Z,-9.02
2023-02-06T19:27:52.382Z,-9.03
2023-02-06T19:30:21.948Z,-9.07
2023-02-06T19:32:52.091Z,-9.10
2023-02-06T19:35:21.601Z,-9.11
2023-02-06T19:37:52.322Z,-9.13
2023-02-06T19:40:22.030Z,-9.14
2023-02-06T19:42:50.784Z,-9.14
2023-02-06T19:45:20.548Z,-9.14
2023-02-06T19:47:50.034Z,-9.19
2023-02-06T19:50:19.642Z,-9.24
2023-02-06T19:52:49.887Z,-9.32
2023-02-06T19:55:19.799Z,-9.35
2023-02-06T19:57:49.483Z,-9.39
2023-02-06T20:00:19.108Z,-9.43
2023-02-06T20:02:48.914Z,-9.49
2023-02-06T20:05:27.256Z,-9.53
2023-02-06T20:07:56.708Z,-9.55
2023-02-06T20:10:25.680Z,-9.59
2023-02-06T20:12:55.296Z,-9.66
2023-02-06T20:15:25.158Z,-9.68
2023-02-06T20:17:54.494Z,-9.68
2023-02-06T20:20:24.313Z,-9.68
2023-02-06T20:22:54.045Z,-9.68
2023-02-06T20:25:24.557Z,-9.69
2023-02-06T20:27:54.062Z,-9.71
2023-02-06T20:30:24.769Z,-9.73
2023-02-06T20:32:54.206Z,-9.74
2023-02-06T20:35:23.721Z,-9.74
2023-02-06T20:37:55.162Z,-9.75
2023-02-06T20:40:23.942Z,-9.77
2023-02-06T20:42:55.142Z,-9.83
2023-02-06T20:45:24.689Z,-9.85
2023-02-06T20:47:53.517Z,-9.89
2023-02-06T20:50:23.158Z,-9.93
2023-02-06T20:52:52.774Z,-9.95
2023-02-06T20:55:22.593Z,-9.96
2023-02-06T20:57:52.168Z,-9.99
2023-02-06T21:00:21.803Z,-10.02
2023-02-06T21:02:52.949Z,-10.07
2023-02-06T21:05:22.920Z,-10.13
2023-02-06T21:07:54.877Z,-10.14
2023-02-06T21:10:25.608Z,-10.12
2023-02-06T21:12:55.109Z,-10.11
2023-02-06T21:15:24.544Z,-10.12
2023-02-06T21:17:54.062Z,-10.11
2023-02-06T21:20:23.445Z,-10.11
2023-02-06T21:22:53.225Z,-10.10
2023-02-06T21:25:22.879Z,-10.13
2023-02-06T21:27:52.391Z,-10.15
2023-02-06T21:30:21.916Z,-10.19
2023-02-06T21:32:51.764Z,-10.19
2023-02-06T21:35:21.174Z,-10.20
2023-02-06T21:37:49.897Z,-10.24
2023-02-06T21:40:21.792Z,-10.28
2023-02-06T21:42:51.233Z,-10.31
2023-02-06T21:45:20.799Z,-10.31
2023-02-06T21:47:50.886Z,-10.32
2023-02-06T21:50:20.587Z,-10.34
2023-02-06T21:52:50.371Z,-10.35
2023-02-06T21:55:19.241Z,-10.37
2023-02-06T21:57:49.530Z,-10.37
2023-02-06T22:00:19.354Z,-10.40
2023-02-06T22:02:49.224Z,-10.43
2023-02-06T22:05:19.202Z,-10.45
2023-02-06T22:07:49.065Z,-10.49
2023-02-06T22:10:18.671Z,-10.51
2023-02-06T22:12:51.047Z,-10.57
2023-02-06T22:15:20.426Z,-10.61
2023-02-06T22:17:50.449Z,-10.63
2023-02-06T22:20:20.007Z,-10.66
2023-02-06T22:22:49.973Z,-10.69
2023-02-06T22:25:18.959Z,-10.73
2023-02-06T22:27:48.942Z,-10.77
2023-02-06T22:30:18.562Z,-10.80
2023-02-06T22:32:48.407Z,-10.85
2023-02-06T22:35:22.796Z,-10.90
2023-02-06T22:37:54.496Z,-10.98
2023-02-06T22:40:23.988Z,-11.03
2023-02-06T22:42:53.763Z,-11.08
2023-02-06T22:45:23.357Z,-11.11
2023-02-06T22:47:52.865Z,-11.16
2023-02-06T22:50:21.575Z,-11.18
2023-02-06T22:53:11.528Z,-11.20
2023-02-06T22:56:01.186Z,-11.21
2023-02-06T22:58:30.678Z,-11.21
2023-02-06T23:01:04.017Z,-11.20
2023-02-06T23:03:33.780Z,-11.19
2023-02-06T23:06:07.520Z,-11.20
2023-02-06T23:08:40.150Z,-11.23
2023-02-06T23:11:10.128Z,-11.34
2023-02-06T23:13:40.339Z,-11.47
2023-02-06T23:16:10.335Z,-11.62
2023-02-06T23:18:40.569Z,-11.69
2023-02-06T23:21:12.481Z,-11.72
2023-02-06T23:23:42.680Z,-11.73
2023-02-06T23:26:13.430Z,-11.73
2023-02-06T23:28:43.752Z,-11.73
2023-02-06T23:31:13.713Z,-11.69
2023-02-06T23:33:43.778Z,-11.65
2023-02-06T23:36:15.536Z,-11.64
2023-02-06T23:38:44.875Z,-11.64
2023-02-06T23:41:19.853Z,-11.62
2023-02-06T23:43:53.690Z,-11.62
2023-02-06T23:46:23.600Z,-11.62
2023-02-06T23:48:53.933Z,-11.63
2023-02-06T23:51:24.443Z,-11.64
2023-02-06T23:53:53.400Z,-11.64
2023-02-06T23:56:27.470Z,-11.67
2023-02-06T23:58:57.896Z,-11.69
